createdAt,value
2022-12-04T00:01:24.441Z,56.65
2022-12-04T00:03:56.560Z,59.38
2022-12-04T00:06:25.500Z,61.67
2022-12-04T00:08:53.440Z,52.85
2022-12-04T00:11:25.323Z,59.22
2022-12-04T00:13:52.533Z,65.43
2022-12-04T00:16:26.045Z,57.15
2022-12-04T00:18:54.522Z,57.20
2022-12-04T00:21:23.602Z,61.70
2022-12-04T00:23:51.375Z,58.65
2022-12-04T00:26:23.038Z,63.92
2022-12-04T00:28:51.288Z,63.78
2022-12-04T00:31:23.040Z,65.07
2022-12-04T00:33:50.143Z,58.35
2022-12-04T00:36:23.966Z,65.75
2022-12-04T00:38:51.143Z,66.55
2022-12-04T00:41:23.639Z,62.10
2022-12-04T00:43:50.794Z,63.63
2022-12-04T00:46:18.594Z,63.92
2022-12-04T00:48:46.502Z,63.85
2022-12-04T00:51:21.136Z,66.85
2022-12-04T00:53:48.687Z,64.15
2022-12-04T00:56:20.918Z,66.32
2022-12-04T00:58:51.126Z,67.07
2022-12-04T01:01:21.154Z,65.53
2022-12-04T01:03:49.595Z,64.55
2022-12-04T01:06:23.922Z,62.80
2022-12-04T01:08:52.969Z,65.78
2022-12-04T01:11:21.382Z,68.30
2022-12-04T01:13:48.495Z,66.63
2022-12-04T01:16:37.854Z,69.43
2022-12-04T01:19:11.515Z,67.53
2022-12-04T01:21:39.096Z,66.00
2022-12-04T01:24:07.200Z,69.78
2022-12-04T01:26:34.257Z,61.40
2022-12-04T01:29:01.594Z,68.65
2022-12-04T01:31:28.472Z,69.63
2022-12-04T01:33:55.745Z,63.97
2022-12-04T01:36:27.234Z,63.78
2022-12-04T01:38:55.461Z,63.40
2022-12-04T01:41:28.617Z,69.05
2022-12-04T01:44:15.445Z,69.38
2022-12-04T01:46:53.526Z,69.47
2022-12-04T01:49:41.355Z,71.85
2022-12-04T01:52:21.766Z,64.38
2022-12-04T01:54:59.553Z,64.45
2022-12-04T01:57:32.137Z,64.10
2022-12-04T02:00:15.482Z,67.68
2022-12-04T02:02:46.760Z,65.78
2022-12-04T02:05:17.791Z,66.10
2022-12-04T02:07:50.271Z,64.88
2022-12-04T02:10:27.131Z,67.53
2022-12-04T02:13:07.869Z,67.05
2022-12-04T02:16:03.429Z,64.82
2022-12-04T02:19:07.202Z,67.45
2022-12-04T02:21:43.316Z,73.18
2022-12-04T02:24:46.777Z,67.63
2022-12-04T02:27:41.624Z,60.58
2022-12-04T02:30:13.041Z,64.43
2022-12-04T02:32:58.666Z,70.38
2022-12-04T02:35:38.181Z,68.55
2022-12-04T02:38:28.766Z,68.07
2022-12-04T02:41:22.850Z,71.18
2022-12-04T02:43:54.644Z,70.63
2022-12-04T02:46:38.390Z,66.32
2022-12-04T02:49:14.411Z,67.60
2022-12-04T02:51:45.079Z,65.63
2022-12-04T02:54:34.589Z,66.43
2022-12-04T02:57:07.806Z,68.03
2022-12-04T02:59:46.819Z,71.65
2022-12-04T03:02:31.687Z,67.82
2022-12-04T03:05:07.070Z,67.57
2022-12-04T03:07:51.975Z,67.45
2022-12-04T03:10:27.949Z,68.25
2022-12-04T03:13:08.531Z,71.63
2022-12-04T03:15:58.327Z,65.97
2022-12-04T03:18:33.527Z,69.25
2022-12-04T03:21:10.658Z,65.10
2022-12-04T03:24:25.376Z,68.85
2022-12-04T03:27:21.933Z,70.57
2022-12-04T03:30:04.848Z,65.43
2022-12-04T03:33:03.825Z,69.00
2022-12-04T03:35:59.698Z,70.80
2022-12-04T03:38:57.233Z,72.90
2022-12-04T03:42:00.748Z,69.90
2022-12-04T03:44:48.424Z,68.75
2022-12-04T03:47:29.603Z,69.70
2022-12-04T03:50:09.295Z,70.82
2022-12-04T03:52:55.018Z,67.70
2022-12-04T03:55:37.075Z,64.95
2022-12-04T03:58:12.310Z,70.85
2022-12-04T04:00:43.719Z,65.40
2022-12-04T04:03:31.742Z,75.15
2022-12-04T04:06:31.692Z,69.97
2022-12-04T04:09:08.782Z,70.15
2022-12-04T04:11:52.703Z,69.25
2022-12-04T04:14:47.943Z,71.88
2022-12-04T04:17:39.151Z,68.60
2022-12-04T04:20:35.573Z,68.85
2022-12-04T04:23:24.900Z,68.80
2022-12-04T04:25:53.418Z,67.57
2022-12-04T04:28:34.453Z,66.38
2022-12-04T04:31:45.656Z,70.07
2022-12-04T04:34:50.096Z,68.15
2022-12-04T04:37:53.378Z,64.43
2022-12-04T04:40:26.957Z,67.50
2022-12-04T04:43:06.365Z,70.05
2022-12-04T04:45:51.094Z,67.85
2022-12-04T04:48:29.262Z,71.57
2022-12-04T04:50:59.646Z,67.25
2022-12-04T04:53:35.036Z,70.97
2022-12-04T04:56:05.527Z,69.28
2022-12-04T04:58:32.676Z,67.68
2022-12-04T05:01:06.863Z,71.28
2022-12-04T05:03:34.802Z,71.13
2022-12-04T05:06:01.892Z,74.05
2022-12-04T05:08:28.718Z,75.90
2022-12-04T05:10:55.743Z,78.03
2022-12-04T05:13:23.632Z,70.82
2022-12-04T05:15:59.670Z,64.85
2022-12-04T05:18:26.941Z,72.10
2022-12-04T05:20:54.220Z,72.25
2022-12-04T05:23:21.482Z,71.15
2022-12-04T05:25:48.389Z,74.00
2022-12-04T05:28:15.436Z,66.47
2022-12-04T05:30:42.945Z,69.80
2022-12-04T05:33:10.747Z,69.43
2022-12-04T05:35:37.493Z,72.32
2022-12-04T05:38:04.283Z,66.85
2022-12-04T05:40:31.011Z,74.85
2022-12-04T05:42:57.727Z,69.68
2022-12-04T05:45:24.495Z,69.95
2022-12-04T05:47:51.300Z,72.78
2022-12-04T05:50:18.266Z,69.32
2022-12-04T05:52:45.179Z,74.20
2022-12-04T05:55:12.598Z,71.03
2022-12-04T05:57:39.339Z,67.68
2022-12-04T06:00:07.827Z,74.78
2022-12-04T06:02:38.187Z,78.20
2022-12-04T06:05:05.675Z,65.18
2022-12-04T06:07:32.548Z,64.35
2022-12-04T06:09:59.334Z,70.15
2022-12-04T06:12:26.147Z,61.35
2022-12-04T06:14:52.938Z,69.75
2022-12-04T06:17:19.737Z,67.03
2022-12-04T06:19:46.753Z,64.78
2022-12-04T06:22:13.601Z,73.85
2022-12-04T06:24:40.445Z,70.18
2022-12-04T06:29:54.662Z,66.72
2022-12-04T06:32:22.361Z,63.42
2022-12-04T06:34:54.603Z,65.25
2022-12-04T06:37:24.653Z,63.15
2022-12-04T06:39:51.462Z,64.03
2022-12-04T06:42:18.616Z,68.03
2022-12-04T06:44:45.593Z,65.57
2022-12-04T06:47:12.395Z,69.32
2022-12-04T06:49:39.246Z,64.30
2022-12-04T06:52:06.031Z,67.68
2022-12-04T06:54:33.073Z,63.70
2022-12-04T06:56:59.898Z,66.78
2022-12-04T06:59:27.731Z,65.22
2022-12-04T07:01:54.640Z,65.72
2022-12-04T07:04:21.679Z,66.88
2022-12-04T07:06:48.488Z,65.38
2022-12-04T07:09:17.853Z,63.88
2022-12-04T07:11:45.664Z,67.00
2022-12-04T07:14:13.858Z,67.18
2022-12-04T07:16:42.680Z,63.22
2022-12-04T07:19:12.710Z,63.03
2022-12-04T07:21:40.126Z,63.33
2022-12-04T07:24:07.345Z,64.35
2022-12-04T07:26:34.338Z,67.78
2022-12-04T07:29:01.133Z,61.00
2022-12-04T07:31:29.910Z,65.80
2022-12-04T07:33:58.848Z,62.63
2022-12-04T07:36:26.598Z,63.13
2022-12-04T07:38:56.357Z,69.18
2022-12-04T07:41:24.056Z,60.70
2022-12-04T07:43:51.019Z,66.32
2022-12-04T07:46:22.848Z,66.32
2022-12-04T07:48:49.926Z,67.03
2022-12-04T07:51:22.053Z,66.35
2022-12-04T07:53:51.010Z,65.82
2022-12-04T07:56:18.758Z,66.45
2022-12-04T07:58:46.583Z,64.15
2022-12-04T08:01:20.694Z,66.28
2022-12-04T08:03:52.660Z,66.03
2022-12-04T08:06:22.182Z,65.68
2022-12-04T08:08:49.771Z,66.68
2022-12-04T08:11:22.362Z,70.45
2022-12-04T08:13:55.153Z,63.92
2022-12-04T08:16:22.227Z,67.65
2022-12-04T08:18:49.123Z,68.15
2022-12-04T08:21:21.865Z,62.38
2022-12-04T08:23:54.177Z,68.75
2022-12-04T08:26:23.486Z,67.57
2022-12-04T08:28:54.376Z,64.07
2022-12-04T08:31:26.763Z,64.55
2022-12-04T08:33:57.049Z,60.35
2022-12-04T08:36:24.694Z,69.00
2022-12-04T08:38:52.291Z,64.47
2022-12-04T08:41:23.894Z,69.28
2022-12-04T08:43:56.000Z,63.63
2022-12-04T08:46:25.268Z,66.30
2022-12-04T08:48:52.620Z,68.95
2022-12-04T08:51:30.050Z,66.15
2022-12-04T08:54:00.712Z,63.80
2022-12-04T08:56:29.815Z,66.63
2022-12-04T08:58:57.460Z,66.45
2022-12-04T09:01:25.782Z,68.35
2022-12-04T09:03:53.155Z,68.97
2022-12-04T09:06:20.886Z,64.93
2022-12-04T09:08:47.728Z,66.95
2022-12-04T09:11:19.319Z,63.35
2022-12-04T09:13:47.576Z,66.70
2022-12-04T09:16:21.876Z,63.58
2022-12-04T09:18:49.081Z,61.70
2022-12-04T09:21:19.172Z,63.70
2022-12-04T09:23:46.783Z,64.97
2022-12-04T09:26:29.857Z,64.40
2022-12-04T09:29:00.843Z,56.53
2022-12-04T09:31:28.307Z,60.58
2022-12-04T09:33:55.233Z,63.00
2022-12-04T09:36:22.294Z,57.65
2022-12-04T09:38:52.962Z,66.97
2022-12-04T09:41:36.779Z,57.65
2022-12-04T09:44:47.165Z,61.85
2022-12-04T09:47:22.577Z,56.03
2022-12-04T09:50:10.193Z,61.40
2022-12-04T09:52:58.827Z,62.05
2022-12-04T09:55:33.574Z,60.00
2022-12-04T09:58:05.021Z,61.17
2022-12-04T10:00:38.901Z,57.25
2022-12-04T10:03:14.927Z,61.00
2022-12-04T10:06:03.422Z,61.72
2022-12-04T10:08:41.633Z,60.75
2022-12-04T10:11:19.546Z,59.00
2022-12-04T10:14:13.990Z,57.60
2022-12-04T10:16:40.686Z,54.50
2022-12-04T10:19:32.754Z,55.70
2022-12-04T10:22:40.346Z,57.40
2022-12-04T10:25:20.930Z,54.63
2022-12-04T10:27:59.498Z,58.63
2022-12-04T10:30:30.645Z,55.10
2022-12-04T10:33:11.366Z,55.28
2022-12-04T10:35:42.236Z,49.95
2022-12-04T10:38:41.841Z,53.35
2022-12-04T10:41:43.192Z,52.28
2022-12-04T10:44:19.125Z,55.35
2022-12-04T10:46:47.053Z,53.35
2022-12-04T10:49:34.176Z,58.63
2022-12-04T10:52:01.280Z,54.25
2022-12-04T10:54:58.722Z,50.25
2022-12-04T10:57:46.489Z,53.70
2022-12-04T11:00:34.477Z,47.25
2022-12-04T11:03:10.436Z,50.42
2022-12-04T11:05:53.131Z,45.00
2022-12-04T11:08:25.833Z,44.78
2022-12-04T11:11:22.322Z,46.88
2022-12-04T11:13:49.133Z,45.38
2022-12-04T11:16:42.099Z,47.70
2022-12-04T11:19:34.612Z,43.00
2022-12-04T11:22:14.431Z,42.55
2022-12-04T11:24:43.026Z,44.28
2022-12-04T11:27:29.039Z,46.70
2022-12-04T11:29:56.904Z,40.83
2022-12-04T11:32:29.933Z,43.42
2022-12-04T11:35:12.435Z,43.67
2022-12-04T11:37:44.982Z,40.15
2022-12-04T11:40:19.166Z,43.45
2022-12-04T11:43:13.054Z,39.78
2022-12-04T11:45:40.020Z,36.05
2022-12-04T11:48:22.347Z,38.63
2022-12-04T11:51:30.657Z,38.85
2022-12-04T11:54:49.930Z,36.28
2022-12-04T11:57:29.699Z,36.22
2022-12-04T12:00:13.338Z,33.83
2022-12-04T12:03:11.447Z,35.00
2022-12-04T12:06:23.606Z,40.28
2022-12-04T12:09:28.409Z,33.42
2022-12-04T12:12:02.379Z,34.40
2022-12-04T12:14:52.197Z,34.33
2022-12-04T12:17:47.498Z,32.90
2022-12-04T12:21:06.503Z,33.38
2022-12-04T12:24:16.026Z,33.50
2022-12-04T12:27:06.530Z,32.05
2022-12-04T12:29:47.961Z,30.08
2022-12-04T12:33:00.767Z,31.48
2022-12-04T12:35:55.832Z,28.70
2022-12-04T12:38:29.760Z,32.50
2022-12-04T12:41:08.553Z,31.90
2022-12-04T12:43:40.250Z,32.05
2022-12-04T12:46:34.590Z,32.63
2022-12-04T12:49:07.653Z,27.27
2022-12-04T12:51:46.451Z,28.85
2022-12-04T12:54:49.642Z,30.30
2022-12-04T12:57:30.048Z,31.13
2022-12-04T13:00:19.583Z,27.85
2022-12-04T13:03:21.173Z,26.90
2022-12-04T13:05:55.006Z,29.40
2022-12-04T13:08:35.457Z,27.75
2022-12-04T13:11:21.099Z,24.52
2022-12-04T13:14:04.245Z,25.15
2022-12-04T13:16:50.823Z,28.35
2022-12-04T13:19:27.509Z,25.83
2022-12-04T13:22:16.129Z,26.65
2022-12-04T13:25:23.633Z,29.50
2022-12-04T13:28:18.149Z,26.88
2022-12-04T13:31:14.003Z,26.80
2022-12-04T13:34:07.018Z,27.27
2022-12-04T13:37:08.006Z,26.98
2022-12-04T13:40:30.329Z,26.35
2022-12-04T13:43:32.193Z,31.00
2022-12-04T13:46:07.065Z,25.48
2022-12-04T13:48:41.973Z,25.65
2022-12-04T13:51:14.980Z,30.38
2022-12-04T13:53:43.881Z,28.08
2022-12-04T13:56:30.045Z,25.27
2022-12-04T13:59:26.877Z,28.63
2022-12-04T14:02:08.087Z,27.95
2022-12-04T14:05:00.658Z,30.75
2022-12-04T14:08:07.302Z,28.83
2022-12-04T14:10:38.983Z,29.00
2022-12-04T14:13:21.528Z,28.25
2022-12-04T14:15:48.636Z,28.92
2022-12-04T14:18:29.603Z,31.05
2022-12-04T14:21:04.840Z,30.58
2022-12-04T14:23:42.259Z,29.55
2022-12-04T14:27:10.149Z,27.67
2022-12-04T14:29:28.066Z,29.65
2022-12-04T14:31:59.053Z,30.23
2022-12-04T14:34:35.342Z,28.88
2022-12-04T14:37:04.601Z,29.73
2022-12-04T14:39:45.406Z,32.13
2022-12-04T14:42:35.502Z,30.73
2022-12-04T14:45:34.142Z,34.47
2022-12-04T14:48:34.988Z,36.05
2022-12-04T14:51:14.659Z,37.85
2022-12-04T14:54:00.453Z,37.35
2022-12-04T14:56:45.318Z,37.55
2022-12-04T14:59:22.270Z,35.70
2022-12-04T15:01:53.560Z,33.42
2022-12-04T15:04:32.888Z,38.97
2022-12-04T15:07:00.935Z,38.75
2022-12-04T15:09:47.365Z,41.83
2022-12-04T15:12:34.155Z,36.95
2022-12-04T15:15:24.969Z,43.30
2022-12-04T15:18:12.086Z,40.33
2022-12-04T15:21:01.079Z,38.90
2022-12-04T15:23:33.646Z,45.55
2022-12-04T15:26:26.872Z,48.53
2022-12-04T15:29:07.077Z,45.45
2022-12-04T15:31:56.465Z,48.85
2022-12-04T15:34:45.092Z,46.72
2022-12-04T15:37:26.210Z,49.63
2022-12-04T15:39:54.660Z,48.15
2022-12-04T15:42:24.468Z,45.95
2022-12-04T15:45:01.237Z,49.42
2022-12-04T15:47:38.583Z,51.08
2022-12-04T15:50:26.827Z,49.35
2022-12-04T15:53:05.312Z,46.38
2022-12-04T15:55:47.310Z,50.60
2022-12-04T15:58:28.115Z,52.28
2022-12-04T16:00:59.933Z,54.28
2022-12-04T16:03:41.581Z,49.33
2022-12-04T16:06:20.571Z,49.75
2022-12-04T16:08:54.309Z,48.38
2022-12-04T16:11:21.375Z,47.45
2022-12-04T16:14:08.285Z,50.90
2022-12-04T16:16:42.291Z,52.47
2022-12-04T16:19:29.362Z,47.92
2022-12-04T16:21:56.741Z,52.00
2022-12-04T16:24:23.740Z,46.58
2022-12-04T16:26:52.566Z,46.88
2022-12-04T16:29:19.480Z,52.63
2022-12-04T16:31:46.576Z,49.33
2022-12-04T16:34:14.421Z,47.08
2022-12-04T16:36:41.818Z,48.33
2022-12-04T16:39:08.685Z,48.58
2022-12-04T16:41:35.574Z,46.47
2022-12-04T16:44:02.601Z,46.60
2022-12-04T16:46:30.311Z,49.40
2022-12-04T16:48:58.743Z,49.22
2022-12-04T16:51:28.727Z,47.83
2022-12-04T16:53:55.754Z,51.95
2022-12-04T16:56:22.939Z,51.90
2022-12-04T16:58:49.743Z,50.20
2022-12-04T17:01:33.559Z,53.50
2022-12-04T17:04:00.560Z,48.63
2022-12-04T17:06:27.657Z,46.88
2022-12-04T17:08:54.385Z,48.35
2022-12-04T17:11:21.182Z,49.65
2022-12-04T17:13:48.117Z,45.67
2022-12-04T17:16:17.607Z,47.08
2022-12-04T17:18:46.854Z,48.78
2022-12-04T17:21:14.855Z,53.28
2022-12-04T17:23:41.913Z,51.60
2022-12-04T17:26:14.514Z,47.50
2022-12-04T17:28:42.270Z,45.40
2022-12-04T17:31:19.541Z,48.83
2022-12-04T17:33:46.849Z,47.70
2022-12-04T17:36:27.454Z,44.90
2022-12-04T17:38:57.104Z,42.03
2022-12-04T17:41:24.404Z,42.88
2022-12-04T17:43:51.257Z,44.22
2022-12-04T17:46:21.525Z,42.25
2022-12-04T17:48:49.032Z,38.92
2022-12-04T17:51:20.337Z,39.35
2022-12-04T17:53:47.507Z,40.78
2022-12-04T17:56:21.867Z,42.15
2022-12-04T17:58:49.738Z,41.25
2022-12-04T18:01:23.837Z,38.80
2022-12-04T18:03:53.782Z,42.83
2022-12-04T18:06:27.875Z,42.75
2022-12-04T18:08:55.488Z,41.22
2022-12-04T18:11:25.921Z,43.58
2022-12-04T18:13:59.508Z,38.65
2022-12-04T18:16:28.732Z,43.08
2022-12-04T18:19:00.743Z,40.85
2022-12-04T18:21:29.067Z,41.75
2022-12-04T18:24:02.704Z,37.80
2022-12-04T18:26:39.345Z,39.88
2022-12-04T18:29:07.545Z,35.92
2022-12-04T18:31:34.673Z,38.45
2022-12-04T18:34:01.888Z,39.28
2022-12-04T18:36:31.358Z,38.75
2022-12-04T18:39:02.487Z,35.17
2022-12-04T18:41:30.310Z,42.08
2022-12-04T18:43:58.112Z,39.55
2022-12-04T18:46:25.953Z,37.47
2022-12-04T18:48:55.478Z,37.20
2022-12-04T18:51:26.842Z,41.05
2022-12-04T18:53:58.366Z,38.35
2022-12-04T18:56:25.647Z,38.50
2022-12-04T18:59:01.579Z,42.72
2022-12-04T19:01:29.327Z,41.00
2022-12-04T19:04:00.000Z,40.08
2022-12-04T19:06:41.051Z,41.42
2022-12-04T19:09:11.859Z,44.55
2022-12-04T19:11:40.298Z,38.47
2022-12-04T19:14:17.565Z,46.35
2022-12-04T19:16:50.255Z,47.10
2022-12-04T19:19:17.728Z,46.33
2022-12-04T19:21:44.687Z,49.05
2022-12-04T19:24:12.288Z,45.10
2022-12-04T19:26:39.192Z,44.45
2022-12-04T19:29:07.321Z,48.10
2022-12-04T19:31:37.765Z,48.72
2022-12-04T19:34:06.242Z,48.95
2022-12-04T19:36:34.733Z,48.83
2022-12-04T19:39:03.969Z,49.75
2022-12-04T19:41:34.271Z,54.00
2022-12-04T19:44:07.842Z,52.03
2022-12-04T19:46:41.714Z,52.47
2022-12-04T19:49:08.515Z,57.58
2022-12-04T19:51:38.391Z,54.85
2022-12-04T19:54:09.527Z,52.15
2022-12-04T19:56:37.097Z,58.50
2022-12-04T19:59:07.666Z,57.95
2022-12-04T20:01:35.551Z,59.13
2022-12-04T20:04:07.281Z,56.83
2022-12-04T20:06:42.011Z,54.45
2022-12-04T20:09:14.266Z,54.60
2022-12-04T20:11:41.374Z,54.00
2022-12-04T20:14:08.939Z,59.40
2022-12-04T20:16:37.010Z,57.45
2022-12-04T20:19:07.004Z,63.53
2022-12-04T20:21:34.939Z,55.25
2022-12-04T20:24:05.357Z,60.75
2022-12-04T20:26:41.250Z,52.15
2022-12-04T20:29:12.959Z,57.42
2022-12-04T20:31:43.999Z,55.65
2022-12-04T20:34:15.762Z,57.35
2022-12-04T20:36:47.039Z,58.60
2022-12-04T20:39:15.506Z,55.58
2022-12-04T20:41:43.047Z,59.15
2022-12-04T20:44:14.756Z,53.97
2022-12-04T20:46:42.745Z,56.17
2022-12-04T20:49:20.655Z,50.60
2022-12-04T20:51:50.207Z,55.30
2022-12-04T20:54:20.603Z,60.05
2022-12-04T20:56:48.944Z,55.35
2022-12-04T20:59:18.698Z,59.70
2022-12-04T21:01:46.576Z,54.45
2022-12-04T21:04:13.369Z,55.35
2022-12-04T21:06:41.610Z,53.15
2022-12-04T21:09:14.357Z,58.90
2022-12-04T21:11:49.056Z,55.22
2022-12-04T21:14:41.861Z,54.33
2022-12-04T21:17:14.278Z,51.72
2022-12-04T21:19:41.001Z,52.80
2022-12-04T21:22:07.990Z,56.13
2022-12-04T21:24:38.489Z,53.33
2022-12-04T21:27:13.396Z,52.20
2022-12-04T21:29:44.030Z,50.50
2022-12-04T21:32:11.167Z,54.05
2022-12-04T21:34:37.931Z,53.35
2022-12-04T21:37:04.767Z,55.67
2022-12-04T21:39:31.804Z,49.67
2022-12-04T21:42:17.326Z,53.40
2022-12-04T21:44:44.127Z,57.38
2022-12-04T21:47:10.912Z,55.47
2022-12-04T21:49:37.678Z,60.45
2022-12-04T21:52:04.675Z,55.25
2022-12-04T21:54:31.525Z,45.95
2022-12-04T21:56:58.462Z,52.97
2022-12-04T21:59:26.292Z,54.20
2022-12-04T22:01:54.206Z,52.85
2022-12-04T22:04:22.110Z,52.78
2022-12-04T22:06:48.997Z,46.53
2022-12-04T22:09:16.172Z,52.15
2022-12-04T22:11:43.559Z,51.35
2022-12-04T22:14:12.582Z,52.13
2022-12-04T22:16:42.624Z,49.63
2022-12-04T22:19:13.462Z,51.88
2022-12-04T22:21:41.455Z,49.90
2022-12-04T22:24:10.484Z,54.20
2022-12-04T22:26:38.067Z,56.67
2022-12-04T22:29:27.164Z,52.53
2022-12-04T22:31:52.774Z,50.60
2022-12-04T22:34:19.534Z,51.47
2022-12-04T22:36:48.832Z,45.75
2022-12-04T22:39:15.799Z,47.70
2022-12-04T22:41:42.601Z,55.35
2022-12-04T22:44:09.361Z,48.75
2022-12-04T22:46:36.219Z,52.22
2022-12-04T22:49:03.120Z,51.05
2022-12-04T22:51:30.013Z,52.25
2022-12-04T22:53:58.338Z,50.25
2022-12-04T22:56:31.193Z,49.63
2022-12-04T22:58:59.424Z,47.78
2022-12-04T23:01:33.903Z,47.65
2022-12-04T23:04:02.633Z,51.80
2022-12-04T23:06:32.725Z,49.08
2022-12-04T23:09:11.288Z,50.45
2022-12-04T23:11:39.801Z,55.72
2022-12-04T23:14:13.212Z,52.88
2022-12-04T23:16:40.855Z,49.33
2022-12-04T23:19:12.104Z,53.28
2022-12-04T23:21:40.057Z,49.17
2022-12-04T23:24:07.463Z,48.28
2022-12-04T23:26:38.258Z,47.05
2022-12-04T23:29:23.293Z,45.35
2022-12-04T23:31:52.751Z,49.38
2022-12-04T23:34:19.524Z,47.40
2022-12-04T23:36:46.476Z,44.33
2022-12-04T23:39:13.288Z,46.22
2022-12-04T23:41:40.063Z,44.80
2022-12-04T23:44:06.818Z,43.55
2022-12-04T23:46:33.912Z,42.33
2022-12-04T23:49:01.581Z,45.45
2022-12-04T23:51:29.175Z,43.80
2022-12-04T23:53:56.727Z,42.10
2022-12-04T23:56:28.206Z,41.30
2022-12-04T23:58:57.448Z,42.00
